sensor_id;sensor_type;location;lat;lon;timestamp;P1;durP1;ratioP1;P2;durP2;ratioP2
70450;SDS011;58869;51.982;4.450;2022-11-30T00:00:13;21.09;;;21.08;;
70450;SDS011;58869;51.982;4.450;2022-11-30T00:02:40;21.42;;;21.42;;
70450;SDS011;58869;51.982;4.450;2022-11-30T00:05:05;20.86;;;20.84;;
70450;SDS011;58869;51.982;4.450;2022-11-30T00:07:32;20.60;;;20.58;;
70450;SDS011;58869;51.982;4.450;2022-11-30T00:09:57;20.15;;;20.15;;
70450;SDS011;58869;51.982;4.450;2022-11-30T00:12:23;19.05;;;19.04;;
70450;SDS011;58869;51.982;4.450;2022-11-30T00:14:48;19.87;;;19.85;;
70450;SDS011;58869;51.982;4.450;2022-11-30T00:17:14;19.72;;;19.72;;
70450;SDS011;58869;51.982;4.450;2022-11-30T00:19:39;19.10;;;19.08;;
70450;SDS011;58869;51.982;4.450;2022-11-30T00:22:05;19.43;;;19.41;;
70450;SDS011;58869;51.982;4.450;2022-11-30T00:24:30;18.85;;;18.82;;
70450;SDS011;58869;51.982;4.450;2022-11-30T00:26:56;19.11;;;19.11;;
70450;SDS011;58869;51.982;4.450;2022-11-30T00:29:21;18.75;;;18.72;;
70450;SDS011;58869;51.982;4.450;2022-11-30T00:31:47;18.60;;;18.54;;
70450;SDS011;58869;51.982;4.450;2022-11-30T00:34:12;18.02;;;18.02;;
70450;SDS011;58869;51.982;4.450;2022-11-30T00:36:38;18.84;;;18.84;;
70450;SDS011;58869;51.982;4.450;2022-11-30T00:39:03;19.40;;;19.40;;
70450;SDS011;58869;51.982;4.450;2022-11-30T00:41:29;18.99;;;18.99;;
70450;SDS011;58869;51.982;4.450;2022-11-30T00:43:54;18.90;;;18.90;;
70450;SDS011;58869;51.982;4.450;2022-11-30T00:46:20;18.61;;;18.60;;
70450;SDS011;58869;51.982;4.450;2022-11-30T00:48:45;19.05;;;19.05;;
70450;SDS011;58869;51.982;4.450;2022-11-30T00:51:11;18.79;;;18.79;;
70450;SDS011;58869;51.982;4.450;2022-11-30T00:53:37;18.42;;;18.41;;
70450;SDS011;58869;51.982;4.450;2022-11-30T00:56:04;18.87;;;18.85;;
70450;SDS011;58869;51.982;4.450;2022-11-30T00:58:30;18.95;;;18.95;;
70450;SDS011;58869;51.982;4.450;2022-11-30T01:00:55;18.42;;;18.42;;
70450;SDS011;58869;51.982;4.450;2022-11-30T01:03:21;18.52;;;18.52;;
70450;SDS011;58869;51.982;4.450;2022-11-30T01:05:46;17.92;;;17.92;;
70450;SDS011;58869;51.982;4.450;2022-11-30T01:08:12;18.93;;;18.93;;
70450;SDS011;58869;51.982;4.450;2022-11-30T01:10:39;18.82;;;18.82;;
70450;SDS011;58869;51.982;4.450;2022-11-30T01:13:05;18.78;;;18.78;;
70450;SDS011;58869;51.982;4.450;2022-11-30T01:15:34;18.05;;;18.05;;
70450;SDS011;58869;51.982;4.450;2022-11-30T01:18:01;18.71;;;18.68;;
70450;SDS011;58869;51.982;4.450;2022-11-30T01:20:26;18.54;;;18.54;;
70450;SDS011;58869;51.982;4.450;2022-11-30T01:22:53;18.94;;;18.93;;
70450;SDS011;58869;51.982;4.450;2022-11-30T01:25:19;19.13;;;19.13;;
70450;SDS011;58869;51.982;4.450;2022-11-30T01:27:47;18.96;;;18.96;;
70450;SDS011;58869;51.982;4.450;2022-11-30T01:30:13;18.82;;;18.82;;
70450;SDS011;58869;51.982;4.450;2022-11-30T01:32:38;19.12;;;19.12;;
70450;SDS011;58869;51.982;4.450;2022-11-30T01:35:04;18.20;;;18.20;;
70450;SDS011;58869;51.982;4.450;2022-11-30T01:37:29;19.00;;;19.00;;
70450;SDS011;58869;51.982;4.450;2022-11-30T01:39:55;18.67;;;18.67;;
70450;SDS011;58869;51.982;4.450;2022-11-30T01:42:20;18.63;;;18.63;;
70450;SDS011;58869;51.982;4.450;2022-11-30T01:44:50;18.65;;;18.65;;
70450;SDS011;58869;51.982;4.450;2022-11-30T01:47:17;18.95;;;18.94;;
70450;SDS011;58869;51.982;4.450;2022-11-30T01:49:47;18.98;;;18.98;;
70450;SDS011;58869;51.982;4.450;2022-11-30T01:52:27;19.16;;;19.16;;
70450;SDS011;58869;51.982;4.450;2022-11-30T01:55:11;18.53;;;18.53;;
70450;SDS011;58869;51.982;4.450;2022-11-30T01:57:45;18.86;;;18.86;;
70450;SDS011;58869;51.982;4.450;2022-11-30T02:00:13;18.82;;;18.82;;
70450;SDS011;58869;51.982;4.450;2022-11-30T02:02:49;18.50;;;18.50;;
70450;SDS011;58869;51.982;4.450;2022-11-30T02:05:27;18.75;;;18.75;;
70450;SDS011;58869;51.982;4.450;2022-11-30T02:07:53;18.03;;;18.03;;
70450;SDS011;58869;51.982;4.450;2022-11-30T02:10:26;18.12;;;18.12;;
70450;SDS011;58869;51.982;4.450;2022-11-30T02:15:30;19.38;;;19.38;;
70450;SDS011;58869;51.982;4.450;2022-11-30T02:18:08;19.71;;;19.71;;
70450;SDS011;58869;51.982;4.450;2022-11-30T02:21:02;18.67;;;18.67;;
70450;SDS011;58869;51.982;4.450;2022-11-30T02:23:54;19.68;;;19.68;;
70450;SDS011;58869;51.982;4.450;2022-11-30T02:27:08;18.91;;;18.89;;
70450;SDS011;58869;51.982;4.450;2022-11-30T02:29:43;18.57;;;18.56;;
70450;SDS011;58869;51.982;4.450;2022-11-30T02:34:47;19.03;;;19.03;;
70450;SDS011;58869;51.982;4.450;2022-11-30T02:37:14;19.02;;;19.00;;
70450;SDS011;58869;51.982;4.450;2022-11-30T02:39:42;19.59;;;19.54;;
70450;SDS011;58869;51.982;4.450;2022-11-30T02:42:11;19.66;;;19.64;;
70450;SDS011;58869;51.982;4.450;2022-11-30T02:44:42;20.41;;;20.41;;
70450;SDS011;58869;51.982;4.450;2022-11-30T02:47:26;20.26;;;20.20;;
70450;SDS011;58869;51.982;4.450;2022-11-30T02:52:35;18.91;;;18.91;;
70450;SDS011;58869;51.982;4.450;2022-11-30T02:55:02;16.93;;;16.93;;
70450;SDS011;58869;51.982;4.450;2022-11-30T02:57:30;16.51;;;16.50;;
70450;SDS011;58869;51.982;4.450;2022-11-30T02:59:56;16.65;;;16.64;;
70450;SDS011;58869;51.982;4.450;2022-11-30T03:02:23;15.27;;;15.27;;
70450;SDS011;58869;51.982;4.450;2022-11-30T03:04:48;14.90;;;14.90;;
70450;SDS011;58869;51.982;4.450;2022-11-30T03:07:14;15.01;;;15.01;;
70450;SDS011;58869;51.982;4.450;2022-11-30T03:09:40;14.87;;;14.86;;
70450;SDS011;58869;51.982;4.450;2022-11-30T03:12:05;14.80;;;14.79;;
70450;SDS011;58869;51.982;4.450;2022-11-30T03:14:31;14.89;;;14.87;;
70450;SDS011;58869;51.982;4.450;2022-11-30T03:16:56;15.00;;;15.00;;
70450;SDS011;58869;51.982;4.450;2022-11-30T03:19:21;14.68;;;14.68;;
70450;SDS011;58869;51.982;4.450;2022-11-30T03:21:48;14.79;;;14.79;;
70450;SDS011;58869;51.982;4.450;2022-11-30T03:24:14;13.82;;;13.82;;
70450;SDS011;58869;51.982;4.450;2022-11-30T03:26:39;14.07;;;14.07;;
70450;SDS011;58869;51.982;4.450;2022-11-30T03:29:05;14.47;;;14.44;;
70450;SDS011;58869;51.982;4.450;2022-11-30T03:31:30;14.29;;;14.29;;
70450;SDS011;58869;51.982;4.450;2022-11-30T03:33:56;13.92;;;13.91;;
70450;SDS011;58869;51.982;4.450;2022-11-30T03:36:21;13.95;;;13.93;;
70450;SDS011;58869;51.982;4.450;2022-11-30T03:38:47;13.79;;;13.79;;
70450;SDS011;58869;51.982;4.450;2022-11-30T03:41:13;14.34;;;14.21;;
70450;SDS011;58869;51.982;4.450;2022-11-30T03:43:41;14.11;;;14.11;;
70450;SDS011;58869;51.982;4.450;2022-11-30T03:46:07;14.34;;;14.34;;
70450;SDS011;58869;51.982;4.450;2022-11-30T03:48:32;14.15;;;14.15;;
70450;SDS011;58869;51.982;4.450;2022-11-30T03:51:00;14.13;;;14.13;;
70450;SDS011;58869;51.982;4.450;2022-11-30T03:53:26;13.92;;;13.92;;
70450;SDS011;58869;51.982;4.450;2022-11-30T03:55:56;13.80;;;13.79;;
70450;SDS011;58869;51.982;4.450;2022-11-30T03:58:23;14.06;;;14.06;;
70450;SDS011;58869;51.982;4.450;2022-11-30T04:00:49;13.57;;;13.57;;
70450;SDS011;58869;51.982;4.450;2022-11-30T04:03:16;14.12;;;14.01;;
70450;SDS011;58869;51.982;4.450;2022-11-30T04:05:42;14.21;;;14.16;;
70450;SDS011;58869;51.982;4.450;2022-11-30T04:08:07;14.20;;;14.19;;
70450;SDS011;58869;51.982;4.450;2022-11-30T04:10:33;15.07;;;15.02;;
70450;SDS011;58869;51.982;4.450;2022-11-30T04:12:58;14.69;;;14.69;;
70450;SDS011;58869;51.982;4.450;2022-11-30T04:15:24;14.38;;;14.38;;
70450;SDS011;58869;51.982;4.450;2022-11-30T04:17:49;14.77;;;14.76;;
70450;SDS011;58869;51.982;4.450;2022-11-30T04:20:15;14.75;;;14.74;;
70450;SDS011;58869;51.982;4.450;2022-11-30T04:22:41;14.31;;;14.24;;
70450;SDS011;58869;51.982;4.450;2022-11-30T04:25:09;14.78;;;14.78;;
70450;SDS011;58869;51.982;4.450;2022-11-30T04:27:34;15.02;;;14.89;;
70450;SDS011;58869;51.982;4.450;2022-11-30T04:29:59;15.62;;;15.56;;
70450;SDS011;58869;51.982;4.450;2022-11-30T04:32:25;14.54;;;14.54;;
70450;SDS011;58869;51.982;4.450;2022-11-30T04:34:50;15.76;;;15.73;;
70450;SDS011;58869;51.982;4.450;2022-11-30T04:37:16;15.54;;;15.52;;
70450;SDS011;58869;51.982;4.450;2022-11-30T04:39:41;15.22;;;15.21;;
70450;SDS011;58869;51.982;4.450;2022-11-30T04:42:07;15.54;;;15.54;;
70450;SDS011;58869;51.982;4.450;2022-11-30T04:44:32;15.70;;;15.61;;
70450;SDS011;58869;51.982;4.450;2022-11-30T04:46:58;15.16;;;15.16;;
70450;SDS011;58869;51.982;4.450;2022-11-30T04:49:23;15.91;;;15.81;;
70450;SDS011;58869;51.982;4.450;2022-11-30T04:51:48;16.12;;;16.05;;
70450;SDS011;58869;51.982;4.450;2022-11-30T04:54:14;15.31;;;15.30;;
70450;SDS011;58869;51.982;4.450;2022-11-30T04:56:39;14.94;;;14.84;;
70450;SDS011;58869;51.982;4.450;2022-11-30T04:59:05;16.11;;;15.99;;
70450;SDS011;58869;51.982;4.450;2022-11-30T05:01:30;16.18;;;16.18;;
70450;SDS011;58869;51.982;4.450;2022-11-30T05:03:56;15.71;;;15.65;;
70450;SDS011;58869;51.982;4.450;2022-11-30T05:06:24;16.08;;;16.07;;
70450;SDS011;58869;51.982;4.450;2022-11-30T05:08:50;16.39;;;16.39;;
70450;SDS011;58869;51.982;4.450;2022-11-30T05:11:15;17.34;;;17.33;;
70450;SDS011;58869;51.982;4.450;2022-11-30T05:13:41;17.25;;;17.25;;
70450;SDS011;58869;51.982;4.450;2022-11-30T05:16:06;17.05;;;17.01;;
70450;SDS011;58869;51.982;4.450;2022-11-30T05:18:34;16.88;;;16.81;;
70450;SDS011;58869;51.982;4.450;2022-11-30T05:21:00;17.54;;;17.50;;
70450;SDS011;58869;51.982;4.450;2022-11-30T05:23:25;16.69;;;16.69;;
70450;SDS011;58869;51.982;4.450;2022-11-30T05:25:51;16.78;;;16.78;;
70450;SDS011;58869;51.982;4.450;2022-11-30T05:28:16;16.05;;;15.98;;
70450;SDS011;58869;51.982;4.450;2022-11-30T05:30:42;16.92;;;16.74;;
70450;SDS011;58869;51.982;4.450;2022-11-30T05:33:07;16.68;;;16.62;;
70450;SDS011;58869;51.982;4.450;2022-11-30T05:35:33;16.40;;;16.24;;
70450;SDS011;58869;51.982;4.450;2022-11-30T05:37:59;16.34;;;16.32;;
70450;SDS011;58869;51.982;4.450;2022-11-30T05:40:24;15.59;;;15.54;;
70450;SDS011;58869;51.982;4.450;2022-11-30T05:42:56;16.74;;;16.58;;
70450;SDS011;58869;51.982;4.450;2022-11-30T05:45:22;16.51;;;16.39;;
70450;SDS011;58869;51.982;4.450;2022-11-30T05:47:48;17.31;;;17.10;;
70450;SDS011;58869;51.982;4.450;2022-11-30T05:50:13;17.32;;;17.23;;
70450;SDS011;58869;51.982;4.450;2022-11-30T05:52:39;16.83;;;16.78;;
70450;SDS011;58869;51.982;4.450;2022-11-30T05:55:04;17.00;;;16.98;;
70450;SDS011;58869;51.982;4.450;2022-11-30T05:57:30;17.06;;;17.01;;
70450;SDS011;58869;51.982;4.450;2022-11-30T06:00:00;16.22;;;16.15;;
70450;SDS011;58869;51.982;4.450;2022-11-30T06:02:26;15.62;;;15.54;;
70450;SDS011;58869;51.982;4.450;2022-11-30T06:04:55;16.36;;;16.24;;
70450;SDS011;58869;51.982;4.450;2022-11-30T06:07:20;16.17;;;16.17;;
70450;SDS011;58869;51.982;4.450;2022-11-30T06:09:46;15.90;;;15.81;;
70450;SDS011;58869;51.982;4.450;2022-11-30T06:12:11;15.80;;;15.77;;
70450;SDS011;58869;51.982;4.450;2022-11-30T06:14:37;15.82;;;15.81;;
70450;SDS011;58869;51.982;4.450;2022-11-30T06:17:02;15.67;;;15.64;;
70450;SDS011;58869;51.982;4.450;2022-11-30T06:19:28;15.80;;;15.69;;
70450;SDS011;58869;51.982;4.450;2022-11-30T06:21:53;15.33;;;15.12;;
70450;SDS011;58869;51.982;4.450;2022-11-30T06:24:19;15.81;;;15.69;;
70450;SDS011;58869;51.982;4.450;2022-11-30T06:26:45;15.83;;;15.71;;
70450;SDS011;58869;51.982;4.450;2022-11-30T06:29:11;15.61;;;15.54;;
70450;SDS011;58869;51.982;4.450;2022-11-30T06:31:36;15.17;;;15.17;;
70450;SDS011;58869;51.982;4.450;2022-11-30T06:34:02;15.29;;;15.28;;
70450;SDS011;58869;51.982;4.450;2022-11-30T06:36:27;14.68;;;14.68;;
70450;SDS011;58869;51.982;4.450;2022-11-30T06:38:53;15.39;;;15.37;;
70450;SDS011;58869;51.982;4.450;2022-11-30T06:41:19;15.75;;;15.75;;
70450;SDS011;58869;51.982;4.450;2022-11-30T06:43:45;16.36;;;16.36;;
70450;SDS011;58869;51.982;4.450;2022-11-30T06:46:11;15.64;;;15.60;;
70450;SDS011;58869;51.982;4.450;2022-11-30T06:48:37;15.51;;;15.51;;
70450;SDS011;58869;51.982;4.450;2022-11-30T06:51:09;15.11;;;15.07;;
70450;SDS011;58869;51.982;4.450;2022-11-30T06:53:35;15.55;;;15.55;;
70450;SDS011;58869;51.982;4.450;2022-11-30T06:56:04;15.53;;;15.53;;
70450;SDS011;58869;51.982;4.450;2022-11-30T06:58:31;15.54;;;15.54;;
70450;SDS011;58869;51.982;4.450;2022-11-30T07:00:57;15.65;;;15.64;;
70450;SDS011;58869;51.982;4.450;2022-11-30T07:03:23;15.64;;;15.64;;
70450;SDS011;58869;51.982;4.450;2022-11-30T07:05:49;15.97;;;15.95;;
70450;SDS011;58869;51.982;4.450;2022-11-30T07:08:15;16.18;;;16.10;;
70450;SDS011;58869;51.982;4.450;2022-11-30T07:10:42;16.02;;;15.99;;
70450;SDS011;58869;51.982;4.450;2022-11-30T07:13:10;16.03;;;15.91;;
70450;SDS011;58869;51.982;4.450;2022-11-30T07:15:38;15.40;;;15.35;;
70450;SDS011;58869;51.982;4.450;2022-11-30T07:18:04;15.78;;;15.68;;
70450;SDS011;58869;51.982;4.450;2022-11-30T07:20:30;16.42;;;16.25;;
70450;SDS011;58869;51.982;4.450;2022-11-30T07:22:55;16.92;;;16.88;;
70450;SDS011;58869;51.982;4.450;2022-11-30T07:25:21;16.95;;;16.68;;
70450;SDS011;58869;51.982;4.450;2022-11-30T07:28:05;16.47;;;16.43;;
70450;SDS011;58869;51.982;4.450;2022-11-30T07:30:32;17.33;;;17.33;;
70450;SDS011;58869;51.982;4.450;2022-11-30T07:32:58;17.67;;;17.67;;
70450;SDS011;58869;51.982;4.450;2022-11-30T07:35:24;17.89;;;17.89;;
70450;SDS011;58869;51.982;4.450;2022-11-30T07:37:49;17.11;;;17.11;;
70450;SDS011;58869;51.982;4.450;2022-11-30T07:40:15;18.37;;;18.19;;
70450;SDS011;58869;51.982;4.450;2022-11-30T07:42:40;27.81;;;27.33;;
70450;SDS011;58869;51.982;4.450;2022-11-30T07:45:06;30.61;;;29.83;;
70450;SDS011;58869;51.982;4.450;2022-11-30T07:47:32;34.07;;;32.87;;
70450;SDS011;58869;51.982;4.450;2022-11-30T07:49:57;24.27;;;24.07;;
70450;SDS011;58869;51.982;4.450;2022-11-30T07:52:23;19.69;;;19.68;;
70450;SDS011;58869;51.982;4.450;2022-11-30T07:54:48;19.39;;;19.38;;
70450;SDS011;58869;51.982;4.450;2022-11-30T07:57:14;19.56;;;19.52;;
70450;SDS011;58869;51.982;4.450;2022-11-30T07:59:40;19.94;;;19.84;;
70450;SDS011;58869;51.982;4.450;2022-11-30T08:02:05;19.65;;;19.56;;
70450;SDS011;58869;51.982;4.450;2022-11-30T08:04:31;18.38;;;18.12;;
70450;SDS011;58869;51.982;4.450;2022-11-30T08:06:56;15.90;;;15.81;;
70450;SDS011;58869;51.982;4.450;2022-11-30T08:09:23;15.83;;;15.75;;
70450;SDS011;58869;51.982;4.450;2022-11-30T08:11:48;16.27;;;16.24;;
70450;SDS011;58869;51.982;4.450;2022-11-30T08:14:14;16.43;;;16.36;;
70450;SDS011;58869;51.982;4.450;2022-11-30T08:16:39;17.43;;;17.37;;
70450;SDS011;58869;51.982;4.450;2022-11-30T08:19:07;17.77;;;17.70;;
70450;SDS011;58869;51.982;4.450;2022-11-30T08:21:32;17.03;;;17.02;;
70450;SDS011;58869;51.982;4.450;2022-11-30T08:23:58;17.30;;;17.30;;
70450;SDS011;58869;51.982;4.450;2022-11-30T08:26:25;17.35;;;17.25;;
70450;SDS011;58869;51.982;4.450;2022-11-30T08:28:55;16.93;;;16.91;;
70450;SDS011;58869;51.982;4.450;2022-11-30T08:31:26;15.63;;;15.63;;
70450;SDS011;58869;51.982;4.450;2022-11-30T08:33:54;14.94;;;14.93;;
70450;SDS011;58869;51.982;4.450;2022-11-30T08:36:22;15.20;;;15.18;;
70450;SDS011;58869;51.982;4.450;2022-11-30T08:38:48;14.57;;;14.54;;
70450;SDS011;58869;51.982;4.450;2022-11-30T08:41:15;15.48;;;15.48;;
70450;SDS011;58869;51.982;4.450;2022-11-30T08:43:43;15.02;;;14.96;;
70450;SDS011;58869;51.982;4.450;2022-11-30T08:46:10;15.71;;;15.71;;
70450;SDS011;58869;51.982;4.450;2022-11-30T08:48:37;16.45;;;16.45;;
70450;SDS011;58869;51.982;4.450;2022-11-30T08:51:04;16.85;;;16.85;;
70450;SDS011;58869;51.982;4.450;2022-11-30T08:53:32;17.25;;;17.25;;
70450;SDS011;58869;51.982;4.450;2022-11-30T08:55:59;17.45;;;17.45;;
70450;SDS011;58869;51.982;4.450;2022-11-30T08:58:28;18.53;;;18.53;;
70450;SDS011;58869;51.982;4.450;2022-11-30T09:01:04;18.20;;;18.20;;
70450;SDS011;58869;51.982;4.450;2022-11-30T09:03:30;17.84;;;17.84;;
70450;SDS011;58869;51.982;4.450;2022-11-30T09:06:01;17.88;;;17.68;;
70450;SDS011;58869;51.982;4.450;2022-11-30T09:08:30;18.50;;;18.49;;
70450;SDS011;58869;51.982;4.450;2022-11-30T09:10:56;19.13;;;19.04;;
70450;SDS011;58869;51.982;4.450;2022-11-30T09:13:22;18.85;;;18.85;;
70450;SDS011;58869;51.982;4.450;2022-11-30T09:15:54;19.13;;;19.13;;
70450;SDS011;58869;51.982;4.450;2022-11-30T09:18:20;20.70;;;20.70;;
70450;SDS011;58869;51.982;4.450;2022-11-30T09:20:45;21.30;;;21.23;;
70450;SDS011;58869;51.982;4.450;2022-11-30T09:23:10;21.84;;;21.82;;
70450;SDS011;58869;51.982;4.450;2022-11-30T09:25:36;22.90;;;22.86;;
70450;SDS011;58869;51.982;4.450;2022-11-30T09:28:01;22.28;;;22.21;;
70450;SDS011;58869;51.982;4.450;2022-11-30T09:30:27;22.23;;;22.23;;
70450;SDS011;58869;51.982;4.450;2022-11-30T09:32:52;23.03;;;23.03;;
70450;SDS011;58869;51.982;4.450;2022-11-30T09:35:18;25.28;;;25.23;;
70450;SDS011;58869;51.982;4.450;2022-11-30T09:37:43;25.25;;;25.24;;
70450;SDS011;58869;51.982;4.450;2022-11-30T09:40:09;24.80;;;24.80;;
70450;SDS011;58869;51.982;4.450;2022-11-30T09:42:40;25.09;;;25.02;;
70450;SDS011;58869;51.982;4.450;2022-11-30T09:45:19;24.44;;;24.44;;
70450;SDS011;58869;51.982;4.450;2022-11-30T09:50:42;24.35;;;24.35;;
70450;SDS011;58869;51.982;4.450;2022-11-30T09:53:20;24.71;;;24.71;;
70450;SDS011;58869;51.982;4.450;2022-11-30T09:55:53;24.52;;;24.46;;
70450;SDS011;58869;51.982;4.450;2022-11-30T09:58:28;24.91;;;24.75;;
70450;SDS011;58869;51.982;4.450;2022-11-30T10:01:03;26.19;;;26.16;;
70450;SDS011;58869;51.982;4.450;2022-11-30T10:03:40;26.93;;;26.93;;
70450;SDS011;58869;51.982;4.450;2022-11-30T10:06:17;26.37;;;26.36;;
70450;SDS011;58869;51.982;4.450;2022-11-30T10:09:15;25.83;;;25.83;;
70450;SDS011;58869;51.982;4.450;2022-11-30T10:12:02;26.72;;;26.67;;
70450;SDS011;58869;51.982;4.450;2022-11-30T10:15:08;27.57;;;27.46;;
70450;SDS011;58869;51.982;4.450;2022-11-30T10:18:09;26.38;;;26.35;;
70450;SDS011;58869;51.982;4.450;2022-11-30T10:26:36;25.12;;;25.12;;
70450;SDS011;58869;51.982;4.450;2022-11-30T10:29:13;24.47;;;24.45;;
70450;SDS011;58869;51.982;4.450;2022-11-30T10:31:43;24.39;;;24.38;;
70450;SDS011;58869;51.982;4.450;2022-11-30T10:34:17;24.35;;;24.31;;
70450;SDS011;58869;51.982;4.450;2022-11-30T10:36:47;24.20;;;24.20;;
70450;SDS011;58869;51.982;4.450;2022-11-30T10:39:24;23.75;;;23.75;;
70450;SDS011;58869;51.982;4.450;2022-11-30T10:42:07;24.02;;;23.99;;
70450;SDS011;58869;51.982;4.450;2022-11-30T10:44:37;23.86;;;23.86;;
70450;SDS011;58869;51.982;4.450;2022-11-30T10:47:10;24.42;;;24.28;;
70450;SDS011;58869;51.982;4.450;2022-11-30T10:49:45;24.49;;;24.41;;
70450;SDS011;58869;51.982;4.450;2022-11-30T10:52:14;24.16;;;24.10;;
70450;SDS011;58869;51.982;4.450;2022-11-30T10:54:45;23.46;;;23.43;;
70450;SDS011;58869;51.982;4.450;2022-11-30T10:57:12;24.29;;;24.26;;
70450;SDS011;58869;51.982;4.450;2022-11-30T10:59:40;24.20;;;24.19;;
70450;SDS011;58869;51.982;4.450;2022-11-30T11:05:29;24.58;;;24.43;;
70450;SDS011;58869;51.982;4.450;2022-11-30T11:08:02;23.53;;;23.53;;
70450;SDS011;58869;51.982;4.450;2022-11-30T11:10:43;24.18;;;24.18;;
70450;SDS011;58869;51.982;4.450;2022-11-30T11:13:14;24.43;;;24.42;;
70450;SDS011;58869;51.982;4.450;2022-11-30T11:15:42;23.71;;;23.71;;
70450;SDS011;58869;51.982;4.450;2022-11-30T11:18:24;23.90;;;23.85;;
70450;SDS011;58869;51.982;4.450;2022-11-30T11:21:04;24.41;;;24.34;;
70450;SDS011;58869;51.982;4.450;2022-11-30T11:23:40;24.59;;;24.55;;
70450;SDS011;58869;51.982;4.450;2022-11-30T11:26:14;25.08;;;24.98;;
70450;SDS011;58869;51.982;4.450;2022-11-30T11:28:43;25.21;;;25.01;;
70450;SDS011;58869;51.982;4.450;2022-11-30T11:31:23;24.80;;;24.67;;
70450;SDS011;58869;51.982;4.450;2022-11-30T11:34:00;25.56;;;25.37;;
70450;SDS011;58869;51.982;4.450;2022-11-30T11:36:31;25.14;;;25.07;;
70450;SDS011;58869;51.982;4.450;2022-11-30T11:39:00;25.12;;;24.89;;
70450;SDS011;58869;51.982;4.450;2022-11-30T11:41:30;25.24;;;25.24;;
70450;SDS011;58869;51.982;4.450;2022-11-30T11:44:00;24.62;;;24.62;;
70450;SDS011;58869;51.982;4.450;2022-11-30T11:49:34;23.36;;;23.33;;
70450;SDS011;58869;51.982;4.450;2022-11-30T11:52:03;24.04;;;24.03;;
70450;SDS011;58869;51.982;4.450;2022-11-30T11:54:30;21.65;;;21.65;;
70450;SDS011;58869;51.982;4.450;2022-11-30T11:57:08;19.61;;;19.60;;
70450;SDS011;58869;51.982;4.450;2022-11-30T11:59:54;19.49;;;19.27;;
70450;SDS011;58869;51.982;4.450;2022-11-30T12:02:31;19.83;;;19.76;;
70450;SDS011;58869;51.982;4.450;2022-11-30T12:05:10;21.00;;;20.94;;
70450;SDS011;58869;51.982;4.450;2022-11-30T12:07:41;21.46;;;21.45;;
70450;SDS011;58869;51.982;4.450;2022-11-30T12:10:41;20.13;;;20.03;;
70450;SDS011;58869;51.982;4.450;2022-11-30T12:13:16;18.55;;;18.55;;
70450;SDS011;58869;51.982;4.450;2022-11-30T12:21:34;19.59;;;19.54;;
70450;SDS011;58869;51.982;4.450;2022-11-30T12:27:20;19.59;;;19.57;;
70450;SDS011;58869;51.982;4.450;2022-11-30T12:30:03;20.20;;;19.91;;
70450;SDS011;58869;51.982;4.450;2022-11-30T12:38:32;19.98;;;19.93;;
70450;SDS011;58869;51.982;4.450;2022-11-30T12:44:08;20.98;;;20.92;;
70450;SDS011;58869;51.982;4.450;2022-11-30T12:57:41;23.12;;;22.63;;
70450;SDS011;58869;51.982;4.450;2022-11-30T13:00:28;24.21;;;23.67;;
70450;SDS011;58869;51.982;4.450;2022-11-30T13:03:28;24.25;;;23.77;;
70450;SDS011;58869;51.982;4.450;2022-11-30T13:06:32;25.07;;;24.54;;
70450;SDS011;58869;51.982;4.450;2022-11-30T13:11:48;22.18;;;21.57;;
70450;SDS011;58869;51.982;4.450;2022-11-30T13:14:20;20.04;;;19.72;;
70450;SDS011;58869;51.982;4.450;2022-11-30T13:16:49;20.05;;;19.49;;
70450;SDS011;58869;51.982;4.450;2022-11-30T13:19:35;20.19;;;19.81;;
70450;SDS011;58869;51.982;4.450;2022-11-30T13:22:37;20.63;;;20.09;;
70450;SDS011;58869;51.982;4.450;2022-11-30T13:28:21;21.63;;;21.04;;
70450;SDS011;58869;51.982;4.450;2022-11-30T13:36:27;22.44;;;21.75;;
70450;SDS011;58869;51.982;4.450;2022-11-30T13:39:08;22.82;;;21.98;;
70450;SDS011;58869;51.982;4.450;2022-11-30T13:41:50;21.67;;;21.25;;
70450;SDS011;58869;51.982;4.450;2022-11-30T13:44:41;23.50;;;22.87;;
70450;SDS011;58869;51.982;4.450;2022-11-30T13:47:16;22.03;;;21.51;;
70450;SDS011;58869;51.982;4.450;2022-11-30T13:49:44;22.80;;;22.20;;
70450;SDS011;58869;51.982;4.450;2022-11-30T13:52:13;24.08;;;23.44;;
70450;SDS011;58869;51.982;4.450;2022-11-30T13:54:42;23.38;;;22.86;;
70450;SDS011;58869;51.982;4.450;2022-11-30T13:59:49;23.70;;;23.00;;
70450;SDS011;58869;51.982;4.450;2022-11-30T14:05:20;23.28;;;22.67;;
70450;SDS011;58869;51.982;4.450;2022-11-30T14:10:48;23.62;;;22.96;;
70450;SDS011;58869;51.982;4.450;2022-11-30T14:15:55;24.18;;;23.40;;
70450;SDS011;58869;51.982;4.450;2022-11-30T14:18:30;24.77;;;24.01;;
70450;SDS011;58869;51.982;4.450;2022-11-30T14:21:11;25.65;;;24.71;;
70450;SDS011;58869;51.982;4.450;2022-11-30T14:24:02;25.56;;;24.74;;
70450;SDS011;58869;51.982;4.450;2022-11-30T14:27:05;25.42;;;24.78;;
70450;SDS011;58869;51.982;4.450;2022-11-30T14:29:24;25.14;;;24.42;;
70450;SDS011;58869;51.982;4.450;2022-11-30T14:32:00;24.96;;;24.35;;
70450;SDS011;58869;51.982;4.450;2022-11-30T14:37:24;26.08;;;25.18;;
70450;SDS011;58869;51.982;4.450;2022-11-30T14:39:56;25.74;;;24.85;;
70450;SDS011;58869;51.982;4.450;2022-11-30T14:42:29;24.81;;;23.80;;
70450;SDS011;58869;51.982;4.450;2022-11-30T14:44:55;24.57;;;23.71;;
70450;SDS011;58869;51.982;4.450;2022-11-30T14:47:31;23.92;;;23.29;;
70450;SDS011;58869;51.982;4.450;2022-11-30T14:49:58;24.77;;;24.05;;
70450;SDS011;58869;51.982;4.450;2022-11-30T14:52:36;24.72;;;23.96;;
70450;SDS011;58869;51.982;4.450;2022-11-30T15:00:40;24.60;;;23.87;;
70450;SDS011;58869;51.982;4.450;2022-11-30T15:03:18;25.13;;;24.34;;
70450;SDS011;58869;51.982;4.450;2022-11-30T15:05:55;25.20;;;24.51;;
70450;SDS011;58869;51.982;4.450;2022-11-30T15:08:24;25.30;;;24.34;;
70450;SDS011;58869;51.982;4.450;2022-11-30T15:11:05;25.53;;;24.63;;
70450;SDS011;58869;51.982;4.450;2022-11-30T15:13:33;25.34;;;24.64;;
70450;SDS011;58869;51.982;4.450;2022-11-30T15:16:07;25.02;;;24.31;;
70450;SDS011;58869;51.982;4.450;2022-11-30T15:18:55;26.81;;;25.85;;
70450;SDS011;58869;51.982;4.450;2022-11-30T15:21:45;26.52;;;25.80;;
70450;SDS011;58869;51.982;4.450;2022-11-30T15:24:11;28.21;;;27.14;;
70450;SDS011;58869;51.982;4.450;2022-11-30T15:29:36;28.20;;;27.36;;
70450;SDS011;58869;51.982;4.450;2022-11-30T15:32:14;29.83;;;28.96;;
70450;SDS011;58869;51.982;4.450;2022-11-30T15:34:48;29.80;;;28.82;;
70450;SDS011;58869;51.982;4.450;2022-11-30T15:37:16;31.04;;;29.77;;
70450;SDS011;58869;51.982;4.450;2022-11-30T15:39:50;30.30;;;29.27;;
70450;SDS011;58869;51.982;4.450;2022-11-30T15:42:26;30.29;;;29.40;;
70450;SDS011;58869;51.982;4.450;2022-11-30T15:47:41;30.19;;;29.34;;
70450;SDS011;58869;51.982;4.450;2022-11-30T15:52:51;31.25;;;30.40;;
70450;SDS011;58869;51.982;4.450;2022-11-30T16:01:07;31.75;;;30.91;;
70450;SDS011;58869;51.982;4.450;2022-11-30T16:06:19;32.14;;;31.19;;
70450;SDS011;58869;51.982;4.450;2022-11-30T16:08:46;32.85;;;31.77;;
70450;SDS011;58869;51.982;4.450;2022-11-30T16:11:12;33.47;;;32.08;;
70450;SDS011;58869;51.982;4.450;2022-11-30T16:13:38;32.53;;;31.43;;
70450;SDS011;58869;51.982;4.450;2022-11-30T16:16:09;33.09;;;32.01;;